Time;durP1;ratioP1;P1;durP2;ratioP2;P2;SDS_P1;SDS_P2;PMS_P1;PMS_P2;Temp;Humidity;BMP_temperature;BMP_pressure;BME280_temperature;BME280_humidity;BME280_pressure;Samples;Min_cycle;Max_cycle;Signal;HPM_P1;HPM_P2
2022/10/23 00:01:41;;;;;;;19.45;13.00;;;;;;;9.33;100.00;99401.56;1708219;81;21065;-48
2022/10/23 00:04:18;;;;;;;12.95;10.08;;;;;;;9.33;100.00;99399.34;1716464;81;21963;-47
2022/10/23 00:06:45;;;;;;;19.48;12.03;;;;;;;9.32;100.00;99400.28;1717578;80;21065;-47
2022/10/23 00:09:13;;;;;;;15.53;11.10;;;;;;;9.31;100.00;99403.44;1728561;80;21037;-47
2022/10/23 00:11:43;;;;;;;23.65;12.07;;;;;;;9.30;100.00;99397.67;1725195;80;21435;-47
2022/10/23 00:14:09;;;;;;;17.27;12.93;;;;;;;9.29;100.00;99396.39;1730135;80;21097;-48
2022/10/23 00:16:37;;;;;;;18.62;11.30;;;;;;;9.28;100.00;99394.18;1723983;80;21934;-48
2022/10/23 00:19:05;;;;;;;17.12;11.85;;;;;;;9.29;100.00;99391.02;1726634;80;21033;-48
2022/10/23 00:21:31;;;;;;;13.95;10.78;;;;;;;9.29;100.00;99395.05;1724871;80;21061;-47
2022/10/23 00:23:58;;;;;;;17.57;10.75;;;;;;;9.29;100.00;99392.37;1726807;80;21495;-48
2022/10/23 00:26:24;;;;;;;21.30;11.45;;;;;;;9.30;100.00;99398.14;1727972;80;21064;-47
2022/10/23 00:28:51;;;;;;;15.93;12.47;;;;;;;9.29;100.00;99389.68;1723588;80;21088;-47
2022/10/23 00:31:20;;;;;;;18.90;14.50;;;;;;;9.29;100.00;99388.34;1731658;80;21030;-47
2022/10/23 00:33:47;;;;;;;18.20;13.65;;;;;;;9.28;100.00;99387.47;1724766;80;21128;-47
2022/10/23 00:36:15;;;;;;;22.87;15.25;;;;;;;9.27;100.00;99382.20;1729598;80;21120;-47
2022/10/23 00:38:43;;;;;;;19.75;13.78;;;;;;;9.25;100.00;99379.58;1726766;80;21153;-48
2022/10/23 00:41:17;;;;;;;18.12;13.95;;;;;;;9.23;100.00;99383.27;1723503;80;21825;-47
2022/10/23 00:44:07;;;;;;;15.43;11.88;;;;;;;9.20;100.00;99375.35;1726002;80;21056;-48
2022/10/23 00:46:35;;;;;;;16.55;12.43;;;;;;;9.18;100.00;99378.14;1723562;80;21041;-47
2022/10/23 00:49:01;;;;;;;22.07;13.78;;;;;;;9.16;100.00;99371.97;1725167;80;21076;-47
2022/10/23 00:51:32;;;;;;;17.40;12.15;;;;;;;9.15;100.00;99370.22;1734449;80;21201;-47
2022/10/23 00:53:59;;;;;;;16.32;11.97;;;;;;;9.15;100.00;99367.53;1708931;80;22457;-48
2022/10/23 00:56:27;;;;;;;20.02;12.55;;;;;;;9.15;100.00;99368.87;1724744;80;21045;-47
2022/10/23 00:58:53;;;;;;;24.37;11.95;;;;;;;9.15;100.00;99366.19;1726148;80;21491;-48
2022/10/23 01:01:21;;;;;;;16.57;11.45;;;;;;;9.15;100.00;99363.98;1723566;80;21177;-47
2022/10/23 01:03:48;;;;;;;20.08;13.50;;;;;;;9.16;100.00;99362.57;1734279;80;21092;-47
2022/10/23 01:06:35;;;;;;;15.43;11.80;;;;;;;9.15;100.00;99360.83;1726720;80;22809;-47
2022/10/23 01:09:38;;;;;;;16.70;12.07;;;;;;;9.15;100.00;99353.23;1713653;81;21025;-47
2022/10/23 01:12:13;;;;;;;15.95;11.63;;;;;;;9.15;100.00;99347.40;1710897;81;21130;-47
2022/10/23 01:15:13;;;;;;;14.73;11.63;;;;;;;9.14;100.00;99349.68;1710297;81;21677;-47
2022/10/23 01:18:09;;;;;;;16.42;11.88;;;;;;;9.15;100.00;99346.05;1713439;81;21070;-47
2022/10/23 01:21:01;;;;;;;18.12;12.55;;;;;;;9.14;100.00;99344.31;1711365;81;21810;-47
2022/10/23 01:24:08;;;;;;;14.60;11.83;;;;;;;9.13;100.00;99343.03;1715806;81;20960;-48
2022/10/23 01:27:14;;;;;;;15.50;11.50;;;;;;;9.11;100.00;99338.61;1711377;81;21042;-48
2022/10/23 01:30:07;;;;;;;17.12;12.43;;;;;;;9.12;100.00;99335.45;1712607;81;21041;-47
2022/10/23 01:32:50;;;;;;;19.87;13.48;;;;;;;9.11;100.00;99331.02;1709721;81;21045;-47
2022/10/23 01:35:26;;;;;;;16.15;14.00;;;;;;;9.09;100.00;99331.59;1681239;83;21814;-48
2022/10/23 01:38:02;;;;;;;16.48;12.85;;;;;;;9.07;100.00;99331.66;1654592;84;21121;-47
2022/10/23 01:40:36;;;;;;;17.48;12.88;;;;;;;9.04;100.00;99329.12;1672712;83;21065;-48
2022/10/23 01:43:15;;;;;;;22.48;12.68;;;;;;;9.03;100.00;99328.72;1644396;83;21308;-48
2022/10/23 01:45:46;;;;;;;18.70;11.90;;;;;;;9.01;100.00;99329.76;1675860;83;21069;-46
2022/10/23 01:48:18;;;;;;;13.50;11.73;;;;;;;8.99;100.00;99324.92;1673827;83;21892;-47
2022/10/23 01:50:45;;;;;;;17.02;11.73;;;;;;;8.99;100.00;99330.30;1646594;84;21282;-46
2022/10/23 01:53:13;;;;;;;18.35;12.07;;;;;;;8.97;100.00;99323.66;1677383;83;21041;-46
2022/10/23 01:55:39;;;;;;;16.52;12.88;;;;;;;8.98;100.00;99324.05;1674166;83;21101;-46
2022/10/23 01:58:08;;;;;;;19.73;11.28;;;;;;;8.99;100.00;99320.91;1675554;83;21415;-47
2022/10/23 02:00:37;;;;;;;15.18;11.43;;;;;;;9.00;100.00;99321.30;1670034;83;21832;-46
2022/10/23 02:03:04;;;;;;;14.78;11.83;;;;;;;9.01;100.00;99327.95;1669229;83;21092;-46
2022/10/23 02:05:32;;;;;;;17.17;12.07;;;;;;;9.03;100.00;99324.69;1649972;83;21334;-47
2022/10/23 02:07:59;;;;;;;17.87;11.80;;;;;;;9.04;100.00;99323.75;1686963;83;21079;-47
2022/10/23 02:10:48;;;;;;;14.35;11.78;;;;;;;9.06;100.00;99321.00;1689834;83;21114;-48
2022/10/23 02:13:29;;;;;;;17.95;12.00;;;;;;;9.08;100.00;99324.48;1697936;82;22732;-46
2022/10/23 02:16:31;;;;;;;14.20;11.55;;;;;;;9.09;100.00;99326.23;1661651;83;21101;-46
2022/10/23 02:19:38;;;;;;;19.50;11.85;;;;;;;9.09;100.00;99328.91;1670962;83;21086;-46
2022/10/23 02:22:17;;;;;;;15.35;11.63;;;;;;;9.10;100.00;99327.97;1676782;83;21085;-46
2022/10/23 02:24:58;;;;;;;16.50;11.90;;;;;;;9.11;100.00;99331.89;1673781;83;21595;-46
2022/10/23 02:27:30;;;;;;;17.92;11.85;;;;;;;9.12;100.00;99335.45;1673347;83;22390;-45
2022/10/23 02:30:01;;;;;;;16.75;12.75;;;;;;;9.13;100.00;99322.90;1674478;83;21101;-45
2022/10/23 02:32:29;;;;;;;16.02;11.48;;;;;;;9.15;100.00;99322.36;1675265;83;21367;-48
2022/10/23 02:34:56;;;;;;;15.38;10.93;;;;;;;9.15;100.00;99314.30;1655850;83;21507;-47
2022/10/23 02:37:24;;;;;;;16.37;12.78;;;;;;;9.16;100.00;99324.97;1678749;83;21108;-46
2022/10/23 02:39:51;;;;;;;18.37;14.85;;;;;;;9.17;100.00;99319.13;1656147;83;21958;-46
2022/10/23 02:42:40;;;;;;;15.60;13.30;;;;;;;9.18;100.00;99323.56;1674737;83;21658;-46
2022/10/23 02:45:31;;;;;;;17.95;13.70;;;;;;;9.19;100.00;99317.22;1685882;83;21697;-46
2022/10/23 02:48:17;;;;;;;15.70;11.78;;;;;;;9.20;100.00;99315.80;1673310;83;21531;-48
2022/10/23 02:51:06;;;;;;;18.85;12.93;;;;;;;9.22;100.00;99317.08;1672315;83;21119;-46
2022/10/23 02:53:47;;;;;;;17.07;13.00;;;;;;;9.24;100.00;99312.51;1695412;82;21839;-45
2022/10/23 02:56:32;;;;;;;13.98;10.95;;;;;;;9.25;100.00;99317.81;1678377;82;21089;-46
2022/10/23 02:59:19;;;;;;;14.95;12.33;;;;;;;9.26;100.00;99314.66;1665528;82;21040;-47
2022/10/23 03:02:12;;;;;;;19.17;12.35;;;;;;;9.27;100.00;99311.02;1699168;82;22267;-46
2022/10/23 03:04:39;;;;;;;14.68;11.12;;;;;;;9.29;100.00;99313.13;1698244;82;21392;-46
2022/10/23 03:07:10;;;;;;;16.40;10.95;;;;;;;9.31;100.00;99311.25;1697628;82;23279;-47
2022/10/23 03:09:38;;;;;;;18.20;11.65;;;;;;;9.32;100.00;99310.31;1684660;83;21067;-46
2022/10/23 03:12:06;;;;;;;15.45;12.35;;;;;;;9.33;100.00;99311.58;1679095;83;21049;-47
2022/10/23 03:14:34;;;;;;;18.15;12.53;;;;;;;9.34;100.00;99305.27;1700945;82;21061;-45
2022/10/23 03:17:02;;;;;;;17.40;13.13;;;;;;;9.36;100.00;99315.91;1670186;83;21071;-47
2022/10/23 03:19:29;;;;;;;13.10;11.05;;;;;;;9.36;100.00;99312.75;1674280;83;21953;-47
2022/10/23 03:21:57;;;;;;;21.10;10.93;;;;;;;9.37;100.00;99309.59;1682096;83;21049;-47
2022/10/23 03:24:23;;;;;;;13.35;10.90;;;;;;;9.37;100.00;99311.80;1698931;82;21088;-46
2022/10/23 03:26:50;;;;;;;12.25;10.58;;;;;;;9.38;100.00;99308.64;1696747;82;21731;-46
2022/10/23 03:29:16;;;;;;;17.15;11.65;;;;;;;9.39;100.00;99307.70;1701055;82;21048;-48
2022/10/23 03:31:44;;;;;;;14.35;11.10;;;;;;;9.39;100.00;99299.65;1686889;83;21956;-46
2022/10/23 03:34:12;;;;;;;11.70;10.50;;;;;;;9.40;100.00;99298.70;1678181;83;21099;-46
2022/10/23 03:36:40;;;;;;;17.67;13.08;;;;;;;9.41;100.00;99298.63;1708117;82;21107;-44
2022/10/23 03:39:06;;;;;;;15.13;11.83;;;;;;;9.42;100.00;99302.19;1702301;82;21465;-46
2022/10/23 03:41:34;;;;;;;12.53;10.75;;;;;;;9.44;100.00;99302.98;1689327;83;21553;-46
2022/10/23 03:44:00;;;;;;;11.95;9.38;;;;;;;9.42;100.00;99298.16;1679529;83;21851;-45
2022/10/23 03:46:26;;;;;;;13.03;10.85;;;;;;;9.43;100.00;99295.88;1685665;83;21068;-45
2022/10/23 03:48:57;;;;;;;11.57;10.38;;;;;;;9.44;100.00;99294.93;1701689;82;21059;-46
2022/10/23 03:51:22;;;;;;;13.48;10.58;;;;;;;9.45;100.00;99297.98;1681393;83;21549;-46
2022/10/23 03:53:48;;;;;;;10.45;9.38;;;;;;;9.46;100.00;99292.54;1701993;82;21063;-46
2022/10/23 03:56:16;;;;;;;10.58;9.48;;;;;;;9.47;100.00;99297.44;1677500;82;22603;-46
2022/10/23 03:58:42;;;;;;;10.05;8.98;;;;;;;9.47;100.00;99297.44;1701759;82;21513;-48
2022/10/23 04:01:09;;;;;;;11.22;10.08;;;;;;;9.47;100.00;99302.34;1683721;83;21089;-47
2022/10/23 04:03:35;;;;;;;12.98;9.40;;;;;;;9.48;100.00;99297.84;1704985;82;21067;-46
2022/10/23 04:06:03;;;;;;;12.63;9.68;;;;;;;9.47;100.00;99295.62;1686314;83;21423;-46
2022/10/23 04:08:31;;;;;;;11.55;9.88;;;;;;;9.48;100.00;99295.16;1696665;82;21444;-48
2022/10/23 04:10:59;;;;;;;11.45;10.32;;;;;;;9.49;100.00;99295.55;1710931;81;21113;-46
2022/10/23 04:13:29;;;;;;;11.53;10.03;;;;;;;9.52;100.00;99292.72;1710150;81;21400;-46
2022/10/23 04:15:57;;;;;;;9.58;8.78;;;;;;;9.55;100.00;99293.02;1711060;81;21053;-46
2022/10/23 04:18:24;;;;;;;14.35;11.03;;;;;;;9.54;100.00;99286.77;1720148;81;21050;-46
2022/10/23 04:20:50;;;;;;;13.08;10.43;;;;;;;9.56;100.00;99286.70;1717395;81;23296;-46
2022/10/23 04:23:17;;;;;;;10.95;9.93;;;;;;;9.57;100.00;99292.00;1712646;81;20976;-46
2022/10/23 04:25:45;;;;;;;12.73;11.53;;;;;;;9.59;100.00;99291.92;1718134;81;21030;-46
2022/10/23 04:28:11;;;;;;;13.15;11.88;;;;;;;9.60;100.00;99290.98;1712717;81;21023;-46
2022/10/23 04:30:40;;;;;;;11.55;10.38;;;;;;;9.61;100.00;99289.53;1712751;81;21070;-46
2022/10/23 04:33:08;;;;;;;12.23;10.98;;;;;;;9.62;100.00;99285.90;1711515;81;21961;-46
2022/10/23 04:35:35;;;;;;;13.03;10.10;;;;;;;9.64;100.00;99291.20;1700242;82;21093;-46
2022/10/23 04:38:01;;;;;;;13.70;10.40;;;;;;;9.65;100.00;99290.25;1709547;81;21314;-47
2022/10/23 04:40:29;;;;;;;13.60;10.45;;;;;;;9.63;100.00;99283.61;1712233;81;21096;-46
2022/10/23 04:42:55;;;;;;;11.57;10.40;;;;;;;9.65;100.00;99286.22;1713199;81;21538;-48
2022/10/23 04:45:22;;;;;;;14.83;10.32;;;;;;;9.64;100.00;99282.67;1711009;81;21982;-45
2022/10/23 04:47:48;;;;;;;12.35;10.88;;;;;;;9.66;100.00;99290.19;1713213;81;21440;-48
2022/10/23 04:50:15;;;;;;;9.63;8.58;;;;;;;9.68;100.00;99289.64;1712481;81;21032;-47
2022/10/23 04:53:00;;;;;;;10.23;9.23;;;;;;;9.67;100.00;99285.68;1710591;81;21640;-46
2022/10/23 04:55:39;;;;;;;10.70;9.70;;;;;;;9.67;100.00;99290.58;1674259;83;21065;-45
2022/10/23 04:58:07;;;;;;;10.13;9.08;;;;;;;9.68;100.00;99287.42;1696197;82;21835;-47
2022/10/23 05:00:33;;;;;;;10.25;9.25;;;;;;;9.69;100.00;99293.20;1714236;81;21072;-47
2022/10/23 05:03:02;;;;;;;9.53;8.58;;;;;;;9.69;100.00;99292.72;1705985;81;21018;-46
2022/10/23 05:05:30;;;;;;;8.88;8.18;;;;;;;9.70;100.00;99294.43;1679798;83;22116;-45
2022/10/23 05:08:01;;;;;;;9.28;8.40;;;;;;;9.71;100.00;99290.80;1684697;82;22112;-47
2022/10/23 05:10:30;;;;;;;9.85;8.58;;;;;;;9.70;100.00;99285.02;1666680;83;22937;-46
2022/10/23 05:13:07;;;;;;;10.15;8.90;;;;;;;9.71;100.00;99284.55;1672120;83;21537;-46
2022/10/23 05:15:34;;;;;;;7.83;7.03;;;;;;;9.71;100.00;99290.80;1676442;83;21058;-45
2022/10/23 05:18:06;;;;;;;9.90;8.90;;;;;;;9.73;100.00;99294.76;1676167;83;21070;-45
2022/10/23 05:20:34;;;;;;;10.23;8.10;;;;;;;9.74;100.00;99296.50;1672663;83;21057;-47
2022/10/23 05:23:00;;;;;;;8.18;7.22;;;;;;;9.74;100.00;99302.75;1719951;80;21961;-46
2022/10/23 05:25:29;;;;;;;9.03;8.13;;;;;;;9.75;100.00;99297.77;1720742;80;21073;-48
2022/10/23 05:28:00;;;;;;;7.78;7.08;;;;;;;9.76;100.00;99295.95;1702322;82;21745;-46
2022/10/23 05:30:26;;;;;;;9.25;7.92;;;;;;;9.78;100.00;99296.25;1720899;80;21071;-48
2022/10/23 05:32:53;;;;;;;10.78;7.17;;;;;;;9.79;100.00;99296.64;1719071;80;21017;-46
2022/10/23 05:35:22;;;;;;;8.15;7.47;;;;;;;9.78;100.00;99298.94;1720450;80;21858;-46
2022/10/23 05:37:50;;;;;;;8.78;7.95;;;;;;;9.80;100.00;99300.20;1722035;80;21112;-46
2022/10/23 05:40:18;;;;;;;8.03;6.53;;;;;;;9.82;100.00;99295.62;1723365;80;21061;-47
2022/10/23 05:42:46;;;;;;;9.23;7.08;;;;;;;9.81;100.00;99296.56;1720329;80;21080;-47
2022/10/23 05:45:15;;;;;;;8.53;7.72;;;;;;;9.81;100.00;99299.26;1723197;80;21022;-48
2022/10/23 05:47:46;;;;;;;7.58;6.97;;;;;;;9.81;100.00;99297.91;1718611;80;21835;-47
2022/10/23 05:50:36;;;;;;;5.70;5.15;;;;;;;9.81;100.00;99293.41;1723382;80;21188;-49
2022/10/23 05:53:21;;;;;;;9.00;6.50;;;;;;;9.83;100.00;99291.99;1716120;80;21077;-47
2022/10/23 05:55:50;;;;;;;7.95;6.78;;;;;;;9.83;100.00;99294.20;1721127;80;21026;-46
2022/10/23 05:58:30;;;;;;;7.72;6.80;;;;;;;9.85;100.00;99293.66;1730311;80;21352;-45
2022/10/23 06:01:09;;;;;;;11.18;7.08;;;;;;;9.88;100.00;99298.86;1722623;80;21839;-47
2022/10/23 06:03:43;;;;;;;7.28;6.58;;;;;;;9.91;100.00;99295.62;1718904;80;21104;-46
2022/10/23 06:06:13;;;;;;;6.87;6.17;;;;;;;9.91;100.00;99299.17;1718438;80;21046;-46
2022/10/23 06:08:42;;;;;;;7.47;6.78;;;;;;;9.93;100.00;99300.45;1722071;80;21594;-47
2022/10/23 06:11:12;;;;;;;9.65;8.05;;;;;;;9.93;100.00;99301.31;1729150;80;21413;-46
2022/10/23 06:13:42;;;;;;;8.08;7.15;;;;;;;9.96;100.00;99304.30;1727646;80;21843;-46
2022/10/23 06:16:10;;;;;;;9.73;6.65;;;;;;;9.97;100.00;99290.78;1697668;80;21050;-45
2022/10/23 06:18:37;;;;;;;9.10;7.03;;;;;;;10.00;100.00;99293.79;1726200;80;21037;-45
2022/10/23 06:21:06;;;;;;;7.72;7.00;;;;;;;10.01;100.00;99299.56;1724495;80;21069;-47
2022/10/23 06:23:34;;;;;;;7.67;7.08;;;;;;;10.03;100.00;99304.39;1728985;80;21072;-49
2022/10/23 06:26:02;;;;;;;6.80;6.10;;;;;;;10.05;100.00;99301.13;1724865;80;21803;-49
2022/10/23 06:28:32;;;;;;;7.45;6.75;;;;;;;10.08;100.00;99295.12;1724365;80;21558;-49
2022/10/23 06:30:59;;;;;;;8.13;7.33;;;;;;;10.11;100.00;99296.78;1691506;82;21050;-49
2022/10/23 06:33:26;;;;;;;7.12;6.45;;;;;;;10.12;100.00;99298.53;1712930;80;21076;-49
2022/10/23 06:35:55;;;;;;;7.95;6.80;;;;;;;10.13;100.00;99297.07;1709656;80;21100;-48
2022/10/23 06:38:22;;;;;;;7.75;6.97;;;;;;;10.14;100.00;99295.25;1722025;80;21817;-49
2022/10/23 06:40:54;;;;;;;7.75;7.05;;;;;;;10.16;100.00;99300.95;1731545;80;21017;-49
2022/10/23 06:43:22;;;;;;;7.70;7.00;;;;;;;10.19;100.00;99304.00;1727667;80;21077;-49
2022/10/23 06:46:02;;;;;;;9.00;7.00;;;;;;;10.20;100.00;99301.70;1725297;80;21037;-48
2022/10/23 06:48:34;;;;;;;7.47;6.78;;;;;;;10.22;100.00;99295.27;1720972;80;21048;-49
2022/10/23 06:51:05;;;;;;;6.37;5.78;;;;;;;10.25;100.00;99294.25;1722365;80;21949;-48
2022/10/23 06:53:36;;;;;;;9.38;7.05;;;;;;;10.27;100.00;99295.04;1719220;80;21065;-49
2022/10/23 06:56:08;;;;;;;7.80;7.10;;;;;;;10.29;100.00;99300.34;1735046;80;21010;-49
2022/10/23 06:58:37;;;;;;;8.35;7.20;;;;;;;10.29;100.00;99286.42;1671997;84;21640;-49
2022/10/23 07:01:08;;;;;;;7.58;6.53;;;;;;;10.31;100.00;99291.69;1728920;80;21052;-48
2022/10/23 07:03:35;;;;;;;8.15;7.45;;;;;;;10.32;100.00;99302.38;1702630;82;21787;-49
2022/10/23 07:06:04;;;;;;;7.95;6.78;;;;;;;10.34;100.00;99299.13;1717797;82;21077;-49
2022/10/23 07:08:31;;;;;;;7.47;6.80;;;;;;;10.36;100.00;99303.95;1734034;80;21211;-49
2022/10/23 07:11:09;;;;;;;7.62;6.87;;;;;;;10.38;100.00;99303.88;1735199;80;21093;-49
2022/10/23 07:13:37;;;;;;;11.22;9.18;;;;;;;10.40;100.00;99308.67;1729586;80;21598;-49
2022/10/23 07:16:17;;;;;;;8.35;7.55;;;;;;;10.41;100.00;99305.91;1736868;80;21988;-49
2022/10/23 07:18:46;;;;;;;10.45;9.33;;;;;;;10.46;100.00;99307.86;1731936;80;20986;-49
2022/10/23 07:21:17;;;;;;;10.75;8.53;;;;;;;10.48;100.00;99310.47;1721204;80;21041;-48
2022/10/23 07:23:44;;;;;;;13.03;10.13;;;;;;;10.50;100.00;99315.30;1707955;80;21582;-49
2022/10/23 07:26:16;;;;;;;14.13;10.60;;;;;;;10.52;100.00;99311.58;1722985;80;21090;-48
2022/10/23 07:28:45;;;;;;;13.75;10.43;;;;;;;10.54;100.00;99315.54;1710580;82;22951;-47
2022/10/23 07:31:12;;;;;;;13.65;10.43;;;;;;;10.55;100.00;99310.05;1709011;80;21153;-46
2022/10/23 07:33:44;;;;;;;13.40;10.98;;;;;;;10.56;100.00;99308.22;1722652;80;21053;-46
2022/10/23 07:36:12;;;;;;;14.55;10.50;;;;;;;10.56;100.00;99306.41;1721728;80;21141;-46
2022/10/23 07:38:39;;;;;;;15.20;11.15;;;;;;;10.55;100.00;99299.76;1726126;80;21081;-47
2022/10/23 07:41:06;;;;;;;15.63;11.65;;;;;;;10.55;100.00;99299.28;1691034;82;21829;-46
2022/10/23 07:43:34;;;;;;;15.08;12.40;;;;;;;10.57;100.00;99292.47;1730915;80;20954;-47
2022/10/23 07:46:00;;;;;;;15.45;13.18;;;;;;;10.58;100.00;99299.13;1725357;80;21080;-47
2022/10/23 07:48:29;;;;;;;17.70;11.83;;;;;;;10.62;100.00;99293.11;1726530;80;21278;-47
2022/10/23 07:51:02;;;;;;;16.42;12.75;;;;;;;10.63;100.00;99288.95;1730156;80;21661;-46
2022/10/23 07:53:31;;;;;;;14.75;13.00;;;;;;;10.66;100.00;99285.71;1728715;80;21839;-46
2022/10/23 07:56:01;;;;;;;18.87;12.63;;;;;;;10.69;100.00;99286.89;1734413;80;21026;-47
2022/10/23 07:58:29;;;;;;;17.07;12.13;;;;;;;10.71;100.00;99285.00;1725731;80;21371;-47
2022/10/23 08:01:19;;;;;;;17.62;12.53;;;;;;;10.74;100.00;99288.84;1725709;80;22327;-46
2022/10/23 08:03:47;;;;;;;21.75;14.83;;;;;;;10.77;100.00;99292.24;1714119;80;21077;-46
2022/10/23 08:06:13;;;;;;;15.88;12.78;;;;;;;10.80;100.00;99292.05;1736688;80;21829;-46
2022/10/23 08:08:41;;;;;;;16.85;13.43;;;;;;;10.84;100.00;99302.18;1727292;80;21025;-47
2022/10/23 08:11:11;;;;;;;17.60;14.03;;;;;;;10.87;100.00;99302.02;1730121;80;22488;-46
2022/10/23 08:13:40;;;;;;;17.05;13.18;;;;;;;10.89;100.00;99304.99;1728123;80;21545;-47
2022/10/23 08:16:08;;;;;;;20.02;14.38;;;;;;;10.90;100.00;99307.21;1724027;80;22329;-46
2022/10/23 08:18:53;;;;;;;19.40;13.43;;;;;;;10.92;100.00;99305.31;1729958;80;21822;-45
2022/10/23 08:21:21;;;;;;;18.40;13.80;;;;;;;10.93;100.00;99311.95;1730043;80;21648;-47
2022/10/23 08:23:48;;;;;;;17.80;13.65;;;;;;;10.95;100.00;99305.15;1730314;80;21582;-46
2022/10/23 08:26:16;;;;;;;24.63;14.70;;;;;;;10.96;100.00;99302.84;1727936;80;21049;-49
2022/10/23 08:28:42;;;;;;;23.15;15.40;;;;;;;11.00;100.00;99311.12;1724965;80;21085;-49
2022/10/23 08:31:15;;;;;;;19.73;14.13;;;;;;;11.01;100.00;99308.83;1724259;80;21831;-48
2022/10/23 08:33:43;;;;;;;19.23;14.37;;;;;;;11.03;100.00;99301.53;1724418;80;21061;-49
2022/10/23 08:36:20;;;;;;;22.58;14.33;;;;;;;11.04;100.00;99311.36;1687635;82;21308;-46
2022/10/23 08:38:47;;;;;;;16.20;12.18;;;;;;;11.07;100.00;99309.81;1727788;80;21272;-48
2022/10/23 08:41:41;;;;;;;17.75;13.30;;;;;;;11.10;100.00;99315.03;1725780;80;21251;-47
2022/10/23 08:44:24;;;;;;;17.25;13.25;;;;;;;11.14;100.00;99313.92;1727450;80;21808;-45
2022/10/23 08:47:13;;;;;;;17.70;12.30;;;;;;;11.18;100.00;99316.81;1707869;80;21413;-47
2022/10/23 08:49:57;;;;;;;17.82;12.85;;;;;;;11.22;100.00;99321.56;1730264;80;21053;-45
2022/10/23 08:52:33;;;;;;;20.02;13.08;;;;;;;11.25;100.00;99324.05;1722326;80;21576;-46
2022/10/23 08:55:25;;;;;;;17.73;12.98;;;;;;;11.27;100.00;99331.10;1731858;80;21419;-47
2022/10/23 08:58:02;;;;;;;20.12;13.45;;;;;;;11.31;100.00;99333.16;1732192;80;21806;-47
2022/10/23 09:00:29;;;;;;;17.90;10.88;;;;;;;11.32;100.00;99329.47;1724039;80;21092;-46
2022/10/23 09:03:02;;;;;;;16.65;13.08;;;;;;;11.33;100.00;99337.47;1730193;80;21092;-47
2022/10/23 09:05:47;;;;;;;17.35;12.40;;;;;;;11.36;100.00;99337.31;1722724;80;21057;-47
2022/10/23 09:08:39;;;;;;;15.43;11.33;;;;;;;11.38;100.00;99336.75;1725737;80;21692;-49
2022/10/23 09:11:46;;;;;;;17.42;12.15;;;;;;;11.43;100.00;99334.25;1726598;80;21834;-46
2022/10/23 09:14:36;;;;;;;16.85;12.68;;;;;;;11.45;100.00;99329.64;1731371;80;21143;-47
2022/10/23 09:17:29;;;;;;;13.75;11.50;;;;;;;11.47;100.00;99336.70;1728598;80;21437;-46
2022/10/23 09:20:29;;;;;;;16.42;11.28;;;;;;;11.48;100.00;99330.34;1729352;80;21574;-45
2022/10/23 09:24:16;;;;;;;17.23;11.30;;;;;;;11.53;100.00;99321.50;1792650;78;22552;-44
2022/10/23 09:26:50;;;;;;;14.70;10.88;;;;;;;11.56;100.00;99324.50;1770516;79;21077;-48
2022/10/23 09:29:26;;;;;;;16.15;10.55;;;;;;;11.59;100.00;99322.48;1767708;79;21901;-46
2022/10/23 09:31:59;;;;;;;17.87;12.30;;;;;;;11.62;100.00;99330.39;1769319;80;21041;-45
2022/10/23 09:34:28;;;;;;;15.53;10.70;;;;;;;11.65;100.00;99330.70;1764377;80;21014;-45
2022/10/23 09:36:59;;;;;;;16.82;11.28;;;;;;;11.68;100.00;99333.20;1770413;79;21108;-46
2022/10/23 09:39:32;;;;;;;16.12;11.38;;;;;;;11.69;100.00;99330.89;1757601;79;21041;-47
2022/10/23 09:42:05;;;;;;;12.47;10.55;;;;;;;11.71;100.00;99328.98;1711431;82;21084;-46
2022/10/23 09:44:32;;;;;;;13.03;11.25;;;;;;;11.74;100.00;99329.68;1683234;83;21136;-46
2022/10/23 09:47:07;;;;;;;11.70;9.83;;;;;;;11.78;100.00;99330.37;1687746;84;21034;-45
2022/10/23 09:49:33;;;;;;;13.83;10.55;;;;;;;11.81;100.00;99331.56;1685721;83;21049;-46
2022/10/23 09:52:15;;;;;;;15.38;10.65;;;;;;;11.82;100.00;99331.95;1689249;83;21069;-45
2022/10/23 09:54:53;;;;;;;13.95;9.63;;;;;;;11.83;100.00;99329.61;1686731;83;21811;-46
2022/10/23 09:57:36;;;;;;;9.90;8.88;;;;;;;11.87;100.00;99325.78;1685109;83;21093;-49
2022/10/23 10:00:15;;;;;;;13.60;10.85;;;;;;;11.87;100.00;99325.78;1687987;83;21108;-47
2022/10/23 10:02:45;;;;;;;14.58;9.63;;;;;;;11.92;100.00;99331.75;1682874;83;21070;-47
2022/10/23 10:05:30;;;;;;;16.23;10.45;;;;;;;11.94;100.00;99317.70;1684492;83;21101;-46
2022/10/23 10:08:21;;;;;;;9.60;8.60;;;;;;;11.94;100.00;99317.70;1662733;84;21880;-45
2022/10/23 10:10:51;;;;;;;11.53;9.48;;;;;;;12.01;100.00;99322.24;1681849;83;21125;-47
2022/10/23 10:13:38;;;;;;;11.70;8.93;;;;;;;12.03;100.00;99315.80;1686287;83;21062;-47
2022/10/23 10:16:32;;;;;;;11.20;8.65;;;;;;;12.09;100.00;99322.16;1685174;83;21135;-47
2022/10/23 10:19:14;;;;;;;8.95;8.05;;;;;;;12.09;100.00;99307.80;1687200;83;21072;-46
2022/10/23 10:21:59;;;;;;;9.33;8.30;;;;;;;12.09;100.00;99307.80;1682520;83;21977;-46
2022/10/23 10:24:37;;;;;;;9.93;8.35;;;;;;;12.13;100.00;99312.94;1674575;83;21045;-46
2022/10/23 10:27:38;;;;;;;9.90;8.48;;;;;;;12.17;100.00;99310.89;1674653;83;21067;-47
2022/10/23 10:30:23;;;;;;;11.08;8.45;;;;;;;12.17;100.00;99310.89;1678603;84;21037;-47
2022/10/23 10:33:14;;;;;;;9.55;8.20;;;;;;;12.20;100.00;99316.59;1680323;83;21644;-47
2022/10/23 10:36:26;;;;;;;11.20;8.10;;;;;;;12.20;100.00;99309.37;1701753;82;21817;-47
2022/10/23 10:38:58;;;;;;;9.88;8.50;;;;;;;12.20;100.00;99313.41;1732031;81;21128;-48
2022/10/23 10:41:54;;;;;;;8.25;7.10;;;;;;;12.23;100.00;99312.37;1736938;81;21033;-47
2022/10/23 10:44:47;;;;;;;9.15;6.50;;;;;;;12.24;100.00;99308.71;1729552;81;21065;-48
2022/10/23 10:47:24;;;;;;;8.35;6.50;;;;;;;12.22;100.00;99306.10;1739129;81;21099;-47
2022/10/23 10:50:17;;;;;;;6.42;5.83;;;;;;;12.21;100.00;99303.49;1740487;81;22558;-46
2022/10/23 10:53:10;;;;;;;6.12;5.53;;;;;;;12.22;100.00;99303.88;1732931;81;21045;-47
2022/10/23 10:55:41;;;;;;;5.53;5.05;;;;;;;12.21;100.00;99305.71;1734637;81;21108;-48
2022/10/23 10:58:18;;;;;;;6.90;5.78;;;;;;;12.22;100.00;99309.28;1699852;82;21599;-48
2022/10/23 11:00:45;;;;;;;5.90;5.40;;;;;;;12.22;100.00;99308.80;1677556;84;21061;-48
2022/10/23 11:03:35;;;;;;;6.85;5.22;;;;;;;12.23;100.00;99312.37;1675042;83;21929;-49
2022/10/23 11:06:02;;;;;;;5.97;5.45;;;;;;;12.24;100.00;99311.41;1739250;81;21563;-49
2022/10/23 11:08:38;;;;;;;6.17;4.65;;;;;;;12.24;100.00;99311.41;1738521;80;21077;-49
2022/10/23 11:11:22;;;;;;;5.25;4.85;;;;;;;12.25;100.00;99307.75;1744649;80;21054;-49
2022/10/23 11:13:52;;;;;;;7.70;4.97;;;;;;;12.25;100.00;99308.59;1735194;80;21062;-50
2022/10/23 11:16:28;;;;;;;4.90;4.50;;;;;;;12.28;100.00;99304.84;1733319;80;21002;-49
2022/10/23 11:19:27;;;;;;;4.83;4.22;;;;;;;12.29;100.00;99305.23;1734383;81;21057;-49
2022/10/23 11:22:11;;;;;;;3.95;3.65;;;;;;;12.30;100.00;99305.14;1734722;81;21672;-49
2022/10/23 11:25:11;;;;;;;;;;;;;;;12.34;100.00;99306.67;1736640;80;21661;-48
2022/10/23 11:28:27;;;;;;;3.37;2.30;;;;;;;12.37;100.00;99306.97;1740492;80;20221;-49
2022/10/23 11:31:29;;;;;;;3.52;3.08;;;;;;;12.39;100.00;99309.97;1737213;80;21853;-48
2022/10/23 11:34:34;;;;;;;2.15;1.92;;;;;;;12.42;100.00;99308.88;1740833;80;21558;-48
2022/10/23 11:37:00;;;;;;;2.72;2.52;;;;;;;12.42;100.00;99308.88;1738866;80;21080;-49
2022/10/23 11:39:34;;;;;;;3.50;3.05;;;;;;;12.46;100.00;99322.11;1710602;80;20994;-49
2022/10/23 11:42:11;;;;;;;6.65;5.05;;;;;;;12.48;100.00;99318.84;1737854;80;21084;-48
2022/10/23 11:44:48;;;;;;;2.15;1.80;;;;;;;12.51;100.00;99317.28;1738762;80;21920;-49
2022/10/23 11:47:35;;;;;;;1.95;1.85;;;;;;;12.51;100.00;99317.28;1736978;80;21069;-49
2022/10/23 11:50:13;;;;;;;2.02;1.77;;;;;;;12.54;100.00;99320.28;1734564;80;21052;-49
2022/10/23 11:53:00;;;;;;;1.40;1.27;;;;;;;12.57;100.00;99321.45;1739032;80;21065;-49
2022/10/23 11:55:28;;;;;;;1.98;1.45;;;;;;;12.58;100.00;99328.58;1738806;80;21103;-48